sensor_id;sensor_type;location;lat;lon;timestamp;pressure;altitude;pressure_sealevel;temperature;humidity
17230;BME280;8731;50.364;8.958;2022-08-07T00:03:56;100939.81;;;15.05;58.89
17230;BME280;8731;50.364;8.958;2022-08-07T00:08:19;100932.94;;;15.14;58.30
17230;BME280;8731;50.364;8.958;2022-08-07T00:12:42;100933.78;;;15.04;58.79
17230;BME280;8731;50.364;8.958;2022-08-07T00:17:05;100923.13;;;15.00;59.03
17230;BME280;8731;50.364;8.958;2022-08-07T00:21:28;100919.97;;;14.84;59.52
17230;BME280;8731;50.364;8.958;2022-08-07T00:25:51;100916.78;;;14.38;62.38
17230;BME280;8731;50.364;8.958;2022-08-07T00:30:13;100910.22;;;14.32;62.54
17230;BME280;8731;50.364;8.958;2022-08-07T00:34:36;100912.53;;;14.48;61.05
17230;BME280;8731;50.364;8.958;2022-08-07T00:38:59;100904.22;;;14.50;60.32
17230;BME280;8731;50.364;8.958;2022-08-07T00:43:22;100906.53;;;14.38;60.01
17230;BME280;8731;50.364;8.958;2022-08-07T00:47:44;100894.56;;;14.29;61.09
17230;BME280;8731;50.364;8.958;2022-08-07T00:52:07;100899.69;;;14.29;61.05
17230;BME280;8731;50.364;8.958;2022-08-07T00:56:32;100903.66;;;14.06;62.19
17230;BME280;8731;50.364;8.958;2022-08-07T01:00:54;100908.22;;;13.81;63.48
17230;BME280;8731;50.364;8.958;2022-08-07T01:05:17;100888.03;;;14.03;62.04
17230;BME280;8731;50.364;8.958;2022-08-07T01:09:41;100893.19;;;13.76;63.22
17230;BME280;8731;50.364;8.958;2022-08-07T01:14:06;100887.59;;;13.34;64.08
17230;BME280;8731;50.364;8.958;2022-08-07T01:18:28;100892.28;;;13.48;64.66
17230;BME280;8731;50.364;8.958;2022-08-07T01:22:52;100901.34;;;13.08;65.79
17230;BME280;8731;50.364;8.958;2022-08-07T01:27:15;100885.72;;;13.41;64.33
17230;BME280;8731;50.364;8.958;2022-08-07T01:31:38;100889.47;;;13.09;66.24
17230;BME280;8731;50.364;8.958;2022-08-07T01:36:01;100895.91;;;12.69;66.69
17230;BME280;8731;50.364;8.958;2022-08-07T01:40:29;100891.25;;;12.65;69.28
17230;BME280;8731;50.364;8.958;2022-08-07T01:44:54;100900.50;;;12.90;66.94
17230;BME280;8731;50.364;8.958;2022-08-07T01:49:17;100904.19;;;12.67;68.93
17230;BME280;8731;50.364;8.958;2022-08-07T01:53:45;100888.81;;;12.84;66.21
17230;BME280;8731;50.364;8.958;2022-08-07T01:58:14;100898.56;;;12.88;66.67
17230;BME280;8731;50.364;8.958;2022-08-07T02:02:44;100907.63;;;12.67;68.31
17230;BME280;8731;50.364;8.958;2022-08-07T02:07:10;100908.06;;;12.80;67.96
17230;BME280;8731;50.364;8.958;2022-08-07T02:11:37;100901.91;;;12.78;67.36
17230;BME280;8731;50.364;8.958;2022-08-07T02:16:07;100900.41;;;12.72;68.63
17230;BME280;8731;50.364;8.958;2022-08-07T02:20:32;100908.28;;;12.56;69.00
17230;BME280;8731;50.364;8.958;2022-08-07T02:24:56;100903.00;;;12.63;68.37
17230;BME280;8731;50.364;8.958;2022-08-07T02:29:20;100904.69;;;12.54;69.28
17230;BME280;8731;50.364;8.958;2022-08-07T02:33:45;100904.06;;;12.48;68.44
17230;BME280;8731;50.364;8.958;2022-08-07T02:38:10;100907.22;;;12.28;67.07
17230;BME280;8731;50.364;8.958;2022-08-07T02:42:35;100907.69;;;12.15;68.28
17230;BME280;8731;50.364;8.958;2022-08-07T02:46:59;100902.75;;;12.08;69.22
17230;BME280;8731;50.364;8.958;2022-08-07T02:51:31;100894.66;;;12.12;67.99
17230;BME280;8731;50.364;8.958;2022-08-07T02:55:58;100906.34;;;12.10;68.69
17230;BME280;8731;50.364;8.958;2022-08-07T03:00:25;100897.81;;;12.10;68.80
17230;BME280;8731;50.364;8.958;2022-08-07T03:04:48;100897.66;;;12.08;69.00
17230;BME280;8731;50.364;8.958;2022-08-07T03:09:15;100895.84;;;12.07;69.09
17230;BME280;8731;50.364;8.958;2022-08-07T03:13:40;100893.88;;;11.96;70.13
17230;BME280;8731;50.364;8.958;2022-08-07T03:18:04;100897.63;;;11.99;69.60
17230;BME280;8731;50.364;8.958;2022-08-07T03:22:27;100894.34;;;11.83;70.59
17230;BME280;8731;50.364;8.958;2022-08-07T03:26:52;100892.63;;;11.75;70.96
17230;BME280;8731;50.364;8.958;2022-08-07T03:31:16;100885.72;;;11.74;70.52
17230;BME280;8731;50.364;8.958;2022-08-07T03:35:44;100881.94;;;11.53;71.19
17230;BME280;8731;50.364;8.958;2022-08-07T03:40:09;100881.34;;;11.56;70.28
17230;BME280;8731;50.364;8.958;2022-08-07T03:44:35;100886.28;;;11.46;71.96
17230;BME280;8731;50.364;8.958;2022-08-07T03:49:00;100902.31;;;11.36;71.04
17230;BME280;8731;50.364;8.958;2022-08-07T03:53:25;100887.00;;;11.36;71.37
17230;BME280;8731;50.364;8.958;2022-08-07T03:57:49;100892.41;;;11.39;71.56
17230;BME280;8731;50.364;8.958;2022-08-07T04:02:13;100895.22;;;11.25;72.38
17230;BME280;8731;50.364;8.958;2022-08-07T04:06:36;100896.41;;;11.20;72.47
17230;BME280;8731;50.364;8.958;2022-08-07T04:11:07;100891.09;;;11.10;73.00
17230;BME280;8731;50.364;8.958;2022-08-07T04:15:34;100890.09;;;11.16;72.95
17230;BME280;8731;50.364;8.958;2022-08-07T04:19:57;100900.72;;;11.12;73.03
17230;BME280;8731;50.364;8.958;2022-08-07T04:24:25;100908.03;;;11.09;73.13
17230;BME280;8731;50.364;8.958;2022-08-07T04:28:48;100896.03;;;11.08;73.21
17230;BME280;8731;50.364;8.958;2022-08-07T04:33:11;100907.13;;;11.08;73.39
17230;BME280;8731;50.364;8.958;2022-08-07T04:37:39;100900.56;;;10.86;73.25
17230;BME280;8731;50.364;8.958;2022-08-07T04:42:02;100913.38;;;10.95;74.18
17230;BME280;8731;50.364;8.958;2022-08-07T04:46:31;100920.31;;;11.04;73.62
17230;BME280;8731;50.364;8.958;2022-08-07T04:51:06;100920.16;;;11.03;73.74
17230;BME280;8731;50.364;8.958;2022-08-07T04:55:42;100919.88;;;11.08;74.25
17230;BME280;8731;50.364;8.958;2022-08-07T05:00:13;100930.13;;;11.17;73.58
17230;BME280;8731;50.364;8.958;2022-08-07T05:04:41;100924.44;;;11.20;73.53
17230;BME280;8731;50.364;8.958;2022-08-07T05:09:21;100923.06;;;11.15;76.34
17230;BME280;8731;50.364;8.958;2022-08-07T05:13:55;100928.81;;;11.29;77.12
17230;BME280;8731;50.364;8.958;2022-08-07T05:18:24;100919.84;;;11.92;74.34
17230;BME280;8731;50.364;8.958;2022-08-07T05:22:53;100933.78;;;12.73;72.60
17230;BME280;8731;50.364;8.958;2022-08-07T05:27:20;100930.91;;;13.32;71.30
17230;BME280;8731;50.364;8.958;2022-08-07T05:31:45;100922.16;;;14.41;69.02
17230;BME280;8731;50.364;8.958;2022-08-07T05:36:12;100933.16;;;15.07;65.81
17230;BME280;8731;50.364;8.958;2022-08-07T05:40:36;100921.72;;;16.04;64.08
17230;BME280;8731;50.364;8.958;2022-08-07T05:45:00;100922.31;;;16.42;62.43
17230;BME280;8731;50.364;8.958;2022-08-07T05:49:26;100924.28;;;17.08;61.13
17230;BME280;8731;50.364;8.958;2022-08-07T05:53:50;100936.38;;;17.87;58.82
17230;BME280;8731;50.364;8.958;2022-08-07T05:58:13;100928.38;;;18.17;55.76
17230;BME280;8731;50.364;8.958;2022-08-07T06:02:39;100923.25;;;18.64;56.48
17230;BME280;8731;50.364;8.958;2022-08-07T06:07:05;100924.69;;;19.32;55.01
17230;BME280;8731;50.364;8.958;2022-08-07T06:11:33;100918.84;;;20.36;52.34
17230;BME280;8731;50.364;8.958;2022-08-07T06:15:57;100927.34;;;19.95;51.83
17230;BME280;8731;50.364;8.958;2022-08-07T06:20:22;100925.16;;;21.20;50.74
17230;BME280;8731;50.364;8.958;2022-08-07T06:24:47;100923.78;;;21.53;50.14
17230;BME280;8731;50.364;8.958;2022-08-07T06:29:10;100910.81;;;21.53;49.48
17230;BME280;8731;50.364;8.958;2022-08-07T06:33:32;100913.53;;;22.58;48.15
17230;BME280;8731;50.364;8.958;2022-08-07T06:37:54;100899.00;;;22.76;47.71
17230;BME280;8731;50.364;8.958;2022-08-07T06:42:26;100909.22;;;22.73;45.18
17230;BME280;8731;50.364;8.958;2022-08-07T06:47:09;100891.78;;;23.50;45.71
17230;BME280;8731;50.364;8.958;2022-08-07T06:51:33;100891.88;;;23.68;44.34
17230;BME280;8731;50.364;8.958;2022-08-07T06:56:01;100891.75;;;24.17;45.01
17230;BME280;8731;50.364;8.958;2022-08-07T07:00:33;100879.97;;;24.41;44.03
17230;BME280;8731;50.364;8.958;2022-08-07T07:05:01;100887.81;;;23.73;44.07
17230;BME280;8731;50.364;8.958;2022-08-07T07:09:25;100883.09;;;24.52;43.40
17230;BME280;8731;50.364;8.958;2022-08-07T07:13:50;100882.06;;;25.03;43.75
17230;BME280;8731;50.364;8.958;2022-08-07T07:18:18;100871.78;;;25.26;45.21
17230;BME280;8731;50.364;8.958;2022-08-07T07:22:48;100865.81;;;25.67;43.09
17230;BME280;8731;50.364;8.958;2022-08-07T07:27:13;100872.72;;;25.66;43.01
17230;BME280;8731;50.364;8.958;2022-08-07T07:31:40;100853.75;;;25.11;40.92
17230;BME280;8731;50.364;8.958;2022-08-07T07:36:09;100854.34;;;26.91;39.78
17230;BME280;8731;50.364;8.958;2022-08-07T07:40:33;100862.03;;;27.33;39.41
17230;BME280;8731;50.364;8.958;2022-08-07T07:44:58;100860.84;;;26.79;35.23
17230;BME280;8731;50.364;8.958;2022-08-07T07:49:24;100857.13;;;26.08;37.02
17230;BME280;8731;50.364;8.958;2022-08-07T07:53:51;100843.28;;;27.69;37.38
17230;BME280;8731;50.364;8.958;2022-08-07T07:58:15;100838.84;;;28.19;36.39
17230;BME280;8731;50.364;8.958;2022-08-07T08:02:39;100833.38;;;28.66;35.64
17230;BME280;8731;50.364;8.958;2022-08-07T08:07:03;100824.38;;;28.58;37.05
17230;BME280;8731;50.364;8.958;2022-08-07T08:11:28;100834.22;;;27.85;34.35
17230;BME280;8731;50.364;8.958;2022-08-07T08:15:51;100811.91;;;28.80;33.59
17230;BME280;8731;50.364;8.958;2022-08-07T08:20:14;100810.97;;;28.78;32.96
17230;BME280;8731;50.364;8.958;2022-08-07T08:24:41;100810.53;;;28.91;34.05
17230;BME280;8731;50.364;8.958;2022-08-07T08:29:23;100800.34;;;29.33;32.11
17230;BME280;8731;50.364;8.958;2022-08-07T08:33:46;100811.59;;;28.97;36.78
17230;BME280;8731;50.364;8.958;2022-08-07T08:38:12;100800.22;;;29.94;29.76
17230;BME280;8731;50.364;8.958;2022-08-07T08:42:42;100792.31;;;29.27;30.38
17230;BME280;8731;50.364;8.958;2022-08-07T08:47:16;100797.88;;;29.71;30.50
17230;BME280;8731;50.364;8.958;2022-08-07T08:51:51;100783.44;;;31.05;30.12
17230;BME280;8731;50.364;8.958;2022-08-07T08:56:22;100779.59;;;30.88;31.06
17230;BME280;8731;50.364;8.958;2022-08-07T09:00:50;100780.00;;;28.93;35.49
17230;BME280;8731;50.364;8.958;2022-08-07T09:05:28;100777.16;;;30.57;31.81
17230;BME280;8731;50.364;8.958;2022-08-07T09:10:00;100770.25;;;29.86;31.45
17230;BME280;8731;50.364;8.958;2022-08-07T09:14:32;100771.97;;;31.02;32.40
17230;BME280;8731;50.364;8.958;2022-08-07T09:19:16;100755.72;;;31.23;29.91
17230;BME280;8731;50.364;8.958;2022-08-07T09:23:54;100757.63;;;31.80;29.65
17230;BME280;8731;50.364;8.958;2022-08-07T09:28:28;100749.06;;;31.94;27.44
17230;BME280;8731;50.364;8.958;2022-08-07T09:33:07;100745.28;;;31.77;27.09
17230;BME280;8731;50.364;8.958;2022-08-07T09:37:44;100734.66;;;32.30;28.36
17230;BME280;8731;50.364;8.958;2022-08-07T09:42:39;100741.59;;;31.18;26.48
17230;BME280;8731;50.364;8.958;2022-08-07T09:47:16;100731.38;;;30.48;27.31
17230;BME280;8731;50.364;8.958;2022-08-07T09:51:59;100727.66;;;31.71;25.64
17230;BME280;8731;50.364;8.958;2022-08-07T09:56:45;100713.72;;;31.29;28.83
17230;BME280;8731;50.364;8.958;2022-08-07T10:01:59;100704.72;;;31.69;27.89
17230;BME280;8731;50.364;8.958;2022-08-07T10:06:45;100702.69;;;32.74;27.79
17230;BME280;8731;50.364;8.958;2022-08-07T10:11:34;100700.44;;;33.09;25.73
17230;BME280;8731;50.364;8.958;2022-08-07T10:16:15;100696.84;;;31.18;26.73
17230;BME280;8731;50.364;8.958;2022-08-07T10:21:03;100688.06;;;32.27;26.04
17230;BME280;8731;50.364;8.958;2022-08-07T10:25:51;100678.44;;;33.10;26.54
17230;BME280;8731;50.364;8.958;2022-08-07T10:30:26;100678.78;;;33.43;25.12
17230;BME280;8731;50.364;8.958;2022-08-07T10:35:06;100667.44;;;33.60;25.19
17230;BME280;8731;50.364;8.958;2022-08-07T10:39:45;100659.63;;;32.76;24.80
17230;BME280;8731;50.364;8.958;2022-08-07T10:44:19;100674.97;;;29.21;27.42
17230;BME280;8731;50.364;8.958;2022-08-07T10:48:57;100661.84;;;32.41;25.01
17230;BME280;8731;50.364;8.958;2022-08-07T10:53:28;100655.34;;;33.92;24.08
17230;BME280;8731;50.364;8.958;2022-08-07T10:58:04;100647.94;;;32.53;24.05
17230;BME280;8731;50.364;8.958;2022-08-07T11:02:38;100652.41;;;31.36;25.36
17230;BME280;8731;50.364;8.958;2022-08-07T11:07:13;100648.47;;;30.63;25.04
17230;BME280;8731;50.364;8.958;2022-08-07T11:11:46;100640.63;;;31.15;25.52
17230;BME280;8731;50.364;8.958;2022-08-07T11:16:19;100643.16;;;31.62;24.69
17230;BME280;8731;50.364;8.958;2022-08-07T11:20:50;100644.84;;;32.89;25.13
17230;BME280;8731;50.364;8.958;2022-08-07T11:25:24;100628.91;;;33.89;24.28
17230;BME280;8731;50.364;8.958;2022-08-07T11:29:58;100636.41;;;32.42;23.86
17230;BME280;8731;50.364;8.958;2022-08-07T11:34:30;100624.09;;;33.33;23.70
17230;BME280;8731;50.364;8.958;2022-08-07T11:39:08;100617.88;;;33.25;24.23
17230;BME280;8731;50.364;8.958;2022-08-07T11:43:54;100630.41;;;30.81;24.85
17230;BME280;8731;50.364;8.958;2022-08-07T11:48:34;100611.66;;;31.12;27.13
17230;BME280;8731;50.364;8.958;2022-08-07T11:53:33;100605.19;;;32.09;25.03
17230;BME280;8731;50.364;8.958;2022-08-07T11:58:10;100602.81;;;31.63;25.52
17230;BME280;8731;50.364;8.958;2022-08-07T12:03:06;100608.31;;;30.73;26.70
17230;BME280;8731;50.364;8.958;2022-08-07T12:08:00;100583.31;;;31.49;25.47
17230;BME280;8731;50.364;8.958;2022-08-07T12:12:34;100580.50;;;30.39;26.62
17230;BME280;8731;50.364;8.958;2022-08-07T12:17:04;100571.63;;;30.77;26.53
17230;BME280;8731;50.364;8.958;2022-08-07T12:21:36;100583.47;;;31.05;26.23
17230;BME280;8731;50.364;8.958;2022-08-07T12:26:11;100568.56;;;31.04;26.85
17230;BME280;8731;50.364;8.958;2022-08-07T12:30:41;100558.69;;;29.22;27.27
17230;BME280;8731;50.364;8.958;2022-08-07T12:35:08;100557.31;;;30.63;26.88
17230;BME280;8731;50.364;8.958;2022-08-07T12:39:34;100553.78;;;30.61;26.60
17230;BME280;8731;50.364;8.958;2022-08-07T12:44:03;100560.19;;;30.29;27.40
17230;BME280;8731;50.364;8.958;2022-08-07T12:48:35;100553.94;;;30.25;27.00
17230;BME280;8731;50.364;8.958;2022-08-07T12:53:10;100563.16;;;30.48;26.88
17230;BME280;8731;50.364;8.958;2022-08-07T12:57:37;100559.03;;;29.00;27.08
17230;BME280;8731;50.364;8.958;2022-08-07T13:02:08;100548.88;;;30.34;26.41
17230;BME280;8731;50.364;8.958;2022-08-07T13:12:12;100542.13;;;30.48;26.49
17230;BME280;8731;50.364;8.958;2022-08-07T13:16:46;100529.16;;;30.11;27.58
17230;BME280;8731;50.364;8.958;2022-08-07T13:21:17;100529.66;;;29.93;27.63
17230;BME280;8731;50.364;8.958;2022-08-07T13:25:47;100526.03;;;30.30;27.15
17230;BME280;8731;50.364;8.958;2022-08-07T13:30:16;100526.09;;;29.49;27.00
17230;BME280;8731;50.364;8.958;2022-08-07T13:34:46;100521.44;;;30.18;26.86
17230;BME280;8731;50.364;8.958;2022-08-07T13:39:21;100517.72;;;29.27;27.06
17230;BME280;8731;50.364;8.958;2022-08-07T13:43:52;100515.88;;;29.23;26.81
17230;BME280;8731;50.364;8.958;2022-08-07T13:48:19;100505.16;;;29.52;26.90
17230;BME280;8731;50.364;8.958;2022-08-07T13:52:44;100506.59;;;29.38;27.39
17230;BME280;8731;50.364;8.958;2022-08-07T13:57:09;100496.00;;;29.74;27.04
17230;BME280;8731;50.364;8.958;2022-08-07T14:01:36;100496.88;;;28.96;27.58
17230;BME280;8731;50.364;8.958;2022-08-07T14:06:06;100488.97;;;29.73;26.82
17230;BME280;8731;50.364;8.958;2022-08-07T14:10:33;100494.00;;;29.62;26.26
17230;BME280;8731;50.364;8.958;2022-08-07T14:15:00;100487.25;;;29.75;26.78
17230;BME280;8731;50.364;8.958;2022-08-07T14:19:34;100486.94;;;29.58;26.97
17230;BME280;8731;50.364;8.958;2022-08-07T14:24:03;100478.78;;;29.46;26.85
17230;BME280;8731;50.364;8.958;2022-08-07T14:28:28;100472.09;;;29.60;26.95
17230;BME280;8731;50.364;8.958;2022-08-07T14:32:54;100477.00;;;28.71;27.10
17230;BME280;8731;50.364;8.958;2022-08-07T14:37:19;100471.38;;;29.28;26.53
17230;BME280;8731;50.364;8.958;2022-08-07T14:41:47;100462.50;;;29.23;26.33
17230;BME280;8731;50.364;8.958;2022-08-07T14:46:11;100461.44;;;29.54;27.27
17230;BME280;8731;50.364;8.958;2022-08-07T14:50:42;100448.25;;;29.49;26.86
17230;BME280;8731;50.364;8.958;2022-08-07T14:55:08;100455.88;;;29.39;27.58
17230;BME280;8731;50.364;8.958;2022-08-07T14:59:36;100446.97;;;29.32;26.44
17230;BME280;8731;50.364;8.958;2022-08-07T15:04:03;100445.06;;;29.25;27.38
17230;BME280;8731;50.364;8.958;2022-08-07T15:08:28;100445.13;;;29.28;26.61
17230;BME280;8731;50.364;8.958;2022-08-07T15:12:58;100437.91;;;29.16;26.50
17230;BME280;8731;50.364;8.958;2022-08-07T15:17:27;100434.56;;;29.25;26.79
17230;BME280;8731;50.364;8.958;2022-08-07T15:21:56;100430.16;;;29.22;27.52
17230;BME280;8731;50.364;8.958;2022-08-07T15:26:32;100433.03;;;28.94;27.19
17230;BME280;8731;50.364;8.958;2022-08-07T15:31:01;100434.00;;;28.99;27.18
17230;BME280;8731;50.364;8.958;2022-08-07T15:35:28;100426.16;;;28.63;26.80
17230;BME280;8731;50.364;8.958;2022-08-07T15:39:54;100425.47;;;28.71;26.80
17230;BME280;8731;50.364;8.958;2022-08-07T15:44:20;100430.75;;;28.73;26.94
17230;BME280;8731;50.364;8.958;2022-08-07T15:48:47;100427.13;;;29.04;27.58
17230;BME280;8731;50.364;8.958;2022-08-07T15:53:32;100414.56;;;28.89;27.34
17230;BME280;8731;50.364;8.958;2022-08-07T15:57:58;100426.72;;;28.17;26.92
17230;BME280;8731;50.364;8.958;2022-08-07T16:02:25;100410.59;;;28.70;27.68
17230;BME280;8731;50.364;8.958;2022-08-07T16:06:51;100417.25;;;28.56;27.20
17230;BME280;8731;50.364;8.958;2022-08-07T16:11:28;100416.31;;;28.54;27.56
17230;BME280;8731;50.364;8.958;2022-08-07T16:16:05;100409.59;;;28.64;27.71
17230;BME280;8731;50.364;8.958;2022-08-07T16:20:57;100409.38;;;28.56;28.22
17230;BME280;8731;50.364;8.958;2022-08-07T16:25:35;100410.94;;;28.48;28.21
17230;BME280;8731;50.364;8.958;2022-08-07T16:30:12;100407.53;;;28.52;28.03
17230;BME280;8731;50.364;8.958;2022-08-07T16:34:43;100406.28;;;28.36;28.09
17230;BME280;8731;50.364;8.958;2022-08-07T16:39:29;100408.53;;;28.23;28.16
17230;BME280;8731;50.364;8.958;2022-08-07T16:44:23;100399.53;;;28.13;28.22
17230;BME280;8731;50.364;8.958;2022-08-07T16:54:31;100415.00;;;28.02;28.64
17230;BME280;8731;50.364;8.958;2022-08-07T16:59:04;100413.75;;;27.58;28.71
17230;BME280;8731;50.364;8.958;2022-08-07T17:03:38;100405.44;;;27.71;28.89
17230;BME280;8731;50.364;8.958;2022-08-07T17:08:17;100408.13;;;27.74;28.66
17230;BME280;8731;50.364;8.958;2022-08-07T17:12:58;100408.31;;;27.50;29.39
17230;BME280;8731;50.364;8.958;2022-08-07T17:17:41;100404.66;;;27.75;28.86
17230;BME280;8731;50.364;8.958;2022-08-07T17:22:18;100409.31;;;27.56;28.92
17230;BME280;8731;50.364;8.958;2022-08-07T17:26:53;100412.22;;;27.65;28.87
17230;BME280;8731;50.364;8.958;2022-08-07T17:31:24;100412.63;;;27.48;28.70
17230;BME280;8731;50.364;8.958;2022-08-07T17:36:08;100409.25;;;27.23;29.75
17230;BME280;8731;50.364;8.958;2022-08-07T17:40:39;100415.78;;;27.38;29.23
17230;BME280;8731;50.364;8.958;2022-08-07T17:45:10;100415.56;;;27.31;29.22
17230;BME280;8731;50.364;8.958;2022-08-07T17:49:46;100414.66;;;27.29;29.43
17230;BME280;8731;50.364;8.958;2022-08-07T17:54:19;100420.97;;;27.07;29.73
17230;BME280;8731;50.364;8.958;2022-08-07T17:59:02;100422.66;;;27.05;29.66
17230;BME280;8731;50.364;8.958;2022-08-07T18:03:42;100418.72;;;26.92;29.90
17230;BME280;8731;50.364;8.958;2022-08-07T18:08:18;100416.06;;;26.90;29.50
17230;BME280;8731;50.364;8.958;2022-08-07T18:13:02;100420.00;;;26.76;29.65
17230;BME280;8731;50.364;8.958;2022-08-07T18:17:46;100421.94;;;26.55;29.92
17230;BME280;8731;50.364;8.958;2022-08-07T18:22:21;100432.66;;;26.64;31.45
17230;BME280;8731;50.364;8.958;2022-08-07T18:27:13;100437.44;;;26.50;30.25
17230;BME280;8731;50.364;8.958;2022-08-07T18:31:48;100441.03;;;26.28;30.36
17230;BME280;8731;50.364;8.958;2022-08-07T18:36:21;100442.41;;;25.93;30.76
17230;BME280;8731;50.364;8.958;2022-08-07T18:41:02;100447.19;;;26.05;30.71
17230;BME280;8731;50.364;8.958;2022-08-07T18:45:42;100460.44;;;25.63;30.95
17230;BME280;8731;50.364;8.958;2022-08-07T18:50:43;100460.56;;;25.66;31.09
17230;BME280;8731;50.364;8.958;2022-08-07T18:55:23;100471.97;;;25.46;30.34
17230;BME280;8731;50.364;8.958;2022-08-07T19:00:03;100470.06;;;25.42;31.07
17230;BME280;8731;50.364;8.958;2022-08-07T19:04:33;100483.28;;;25.24;31.50
17230;BME280;8731;50.364;8.958;2022-08-07T19:09:07;100483.16;;;25.21;31.16
17230;BME280;8731;50.364;8.958;2022-08-07T19:13:44;100491.53;;;25.13;32.03
17230;BME280;8731;50.364;8.958;2022-08-07T19:18:19;100492.31;;;24.89;32.09
17230;BME280;8731;50.364;8.958;2022-08-07T19:22:57;100502.84;;;24.51;32.63
17230;BME280;8731;50.364;8.958;2022-08-07T19:27:25;100509.72;;;24.69;32.82
17230;BME280;8731;50.364;8.958;2022-08-07T19:31:56;100512.84;;;24.61;32.32
17230;BME280;8731;50.364;8.958;2022-08-07T19:36:25;100517.72;;;24.53;32.63
17230;BME280;8731;50.364;8.958;2022-08-07T19:40:55;100512.88;;;24.41;32.75
17230;BME280;8731;50.364;8.958;2022-08-07T19:45:22;100523.78;;;24.33;32.87
17230;BME280;8731;50.364;8.958;2022-08-07T19:49:49;100526.78;;;24.23;32.75
17230;BME280;8731;50.364;8.958;2022-08-07T19:54:17;100533.09;;;24.08;33.34
17230;BME280;8731;50.364;8.958;2022-08-07T19:58:40;100544.06;;;24.01;33.24
17230;BME280;8731;50.364;8.958;2022-08-07T20:03:05;100545.19;;;23.88;33.01
17230;BME280;8731;50.364;8.958;2022-08-07T20:07:33;100543.63;;;23.73;33.64
17230;BME280;8731;50.364;8.958;2022-08-07T20:12:00;100541.22;;;23.77;33.61
17230;BME280;8731;50.364;8.958;2022-08-07T20:16:25;100541.41;;;23.63;33.85
17230;BME280;8731;50.364;8.958;2022-08-07T20:20:48;100548.81;;;23.55;34.00
17230;BME280;8731;50.364;8.958;2022-08-07T20:25:16;100552.19;;;23.35;35.02
17230;BME280;8731;50.364;8.958;2022-08-07T20:29:47;100554.72;;;23.15;34.66
17230;BME280;8731;50.364;8.958;2022-08-07T20:34:11;100557.84;;;23.08;34.92
17230;BME280;8731;50.364;8.958;2022-08-07T20:38:41;100555.69;;;22.82;36.88
17230;BME280;8731;50.364;8.958;2022-08-07T20:43:06;100551.72;;;22.05;39.80
17230;BME280;8731;50.364;8.958;2022-08-07T20:47:32;100551.06;;;22.10;39.42
17230;BME280;8731;50.364;8.958;2022-08-07T20:51:58;100552.03;;;22.12;38.13
17230;BME280;8731;50.364;8.958;2022-08-07T20:56:22;100559.06;;;21.98;39.20
17230;BME280;8731;50.364;8.958;2022-08-07T21:00:51;100552.66;;;21.91;38.97
17230;BME280;8731;50.364;8.958;2022-08-07T21:05:19;100560.66;;;21.63;39.15
17230;BME280;8731;50.364;8.958;2022-08-07T21:09:43;100564.78;;;21.60;39.66
17230;BME280;8731;50.364;8.958;2022-08-07T21:14:08;100563.44;;;21.52;39.63
17230;BME280;8731;50.364;8.958;2022-08-07T21:18:36;100570.38;;;21.36;40.15
17230;BME280;8731;50.364;8.958;2022-08-07T21:23:06;100577.19;;;21.05;41.04
17230;BME280;8731;50.364;8.958;2022-08-07T21:27:41;100586.13;;;20.80;41.71
17230;BME280;8731;50.364;8.958;2022-08-07T21:32:18;100575.75;;;20.51;40.88
17230;BME280;8731;50.364;8.958;2022-08-07T21:36:47;100572.84;;;20.32;42.90
17230;BME280;8731;50.364;8.958;2022-08-07T21:41:18;100579.78;;;20.33;42.93
17230;BME280;8731;50.364;8.958;2022-08-07T21:45:51;100572.13;;;20.19;43.13
17230;BME280;8731;50.364;8.958;2022-08-07T21:50:22;100575.34;;;20.02;43.18
17230;BME280;8731;50.364;8.958;2022-08-07T21:54:56;100588.72;;;19.95;43.48
17230;BME280;8731;50.364;8.958;2022-08-07T21:59:33;100591.84;;;19.63;44.79
17230;BME280;8731;50.364;8.958;2022-08-07T22:04:15;100589.78;;;19.31;45.91
17230;BME280;8731;50.364;8.958;2022-08-07T22:08:45;100589.06;;;19.33;45.11
17230;BME280;8731;50.364;8.958;2022-08-07T22:13:15;100596.31;;;19.13;46.20
17230;BME280;8731;50.364;8.958;2022-08-07T22:17:45;100584.09;;;19.10;45.69
17230;BME280;8731;50.364;8.958;2022-08-07T22:22:21;100606.34;;;18.95;46.29
17230;BME280;8731;50.364;8.958;2022-08-07T22:26:49;100601.66;;;18.76;46.76
17230;BME280;8731;50.364;8.958;2022-08-07T22:31:24;100597.28;;;18.75;46.46
17230;BME280;8731;50.364;8.958;2022-08-07T22:35:56;100599.56;;;18.70;46.57
17230;BME280;8731;50.364;8.958;2022-08-07T22:40:25;100602.00;;;18.69;46.15
17230;BME280;8731;50.364;8.958;2022-08-07T22:44:55;100598.00;;;18.61;46.56
17230;BME280;8731;50.364;8.958;2022-08-07T22:49:33;100595.50;;;18.49;47.36
17230;BME280;8731;50.364;8.958;2022-08-07T22:54:32;100597.31;;;18.38;47.85
17230;BME280;8731;50.364;8.958;2022-08-07T22:59:37;100618.00;;;18.02;49.11
17230;BME280;8731;50.364;8.958;2022-08-07T23:04:24;100621.06;;;17.61;51.36
17230;BME280;8731;50.364;8.958;2022-08-07T23:09:17;100619.97;;;17.69;50.81
17230;BME280;8731;50.364;8.958;2022-08-07T23:13:59;100627.72;;;17.34;52.20
17230;BME280;8731;50.364;8.958;2022-08-07T23:18:41;100621.63;;;17.45;51.55
17230;BME280;8731;50.364;8.958;2022-08-07T23:23:45;100632.84;;;17.11;53.24
17230;BME280;8731;50.364;8.958;2022-08-07T23:28:43;100621.22;;;17.28;51.59
17230;BME280;8731;50.364;8.958;2022-08-07T23:33:33;100624.91;;;17.19;51.93
17230;BME280;8731;50.364;8.958;2022-08-07T23:38:18;100618.91;;;16.74;53.66
17230;BME280;8731;50.364;8.958;2022-08-07T23:42:57;100626.47;;;17.06;51.89
17230;BME280;8731;50.364;8.958;2022-08-07T23:47:47;100633.03;;;17.02;52.05
17230;BME280;8731;50.364;8.958;2022-08-07T23:52:26;100627.63;;;16.76;53.54
17230;BME280;8731;50.364;8.958;2022-08-07T23:56:58;100629.13;;;16.84;52.73
